createdAt,value
2023-04-26T00:00:09.941Z,6.00
2023-04-26T00:02:38.058Z,6.00
2023-04-26T00:05:07.579Z,6.10
2023-04-26T00:07:37.948Z,6.10
2023-04-26T00:10:06.408Z,6.10
2023-04-26T00:12:34.887Z,6.10
2023-04-26T00:15:03.268Z,6.20
2023-04-26T00:17:31.494Z,6.20
2023-04-26T00:19:59.801Z,6.20
2023-04-26T00:22:33.296Z,6.30
2023-04-26T00:25:04.825Z,6.20
2023-04-26T00:27:33.288Z,6.20
2023-04-26T00:30:01.275Z,6.20
2023-04-26T00:32:29.251Z,6.20
2023-04-26T00:34:57.474Z,6.10
2023-04-26T00:37:25.511Z,6.10
2023-04-26T00:39:53.616Z,6.10
2023-04-26T00:42:23.014Z,6.00
2023-04-26T00:44:55.291Z,5.90
2023-04-26T00:47:23.470Z,5.80
2023-04-26T00:49:52.575Z,5.70
2023-04-26T00:52:20.757Z,5.60
2023-04-26T00:54:50.238Z,5.40
2023-04-26T00:57:18.572Z,5.40
2023-04-26T00:59:48.280Z,5.30
2023-04-26T01:02:17.591Z,5.20
2023-04-26T01:04:45.940Z,5.00
2023-04-26T01:07:14.175Z,5.10
2023-04-26T01:09:43.059Z,5.00
2023-04-26T01:12:13.229Z,4.90
2023-04-26T01:14:41.980Z,4.70
2023-04-26T01:17:11.460Z,4.60
2023-04-26T01:19:48.523Z,4.60
2023-04-26T01:22:17.990Z,4.50
2023-04-26T01:24:51.317Z,4.50
2023-04-26T01:27:19.621Z,4.40
2023-04-26T01:29:47.647Z,4.50
2023-04-26T01:32:15.787Z,4.30
2023-04-26T01:34:43.916Z,4.30
2023-04-26T01:37:12.229Z,4.30
2023-04-26T01:39:40.336Z,4.20
2023-04-26T01:42:10.057Z,4.30
2023-04-26T01:44:38.109Z,5.00
2023-04-26T01:47:06.388Z,4.30
2023-04-26T01:49:34.580Z,4.30
2023-04-26T01:52:03.337Z,4.40
2023-04-26T01:54:31.715Z,4.30
2023-04-26T01:56:59.660Z,4.30
2023-04-26T01:59:29.264Z,4.30
2023-04-26T02:01:57.468Z,4.20
2023-04-26T02:04:25.952Z,4.10
2023-04-26T02:06:56.318Z,4.10
2023-04-26T02:09:24.477Z,4.00
2023-04-26T02:11:52.642Z,3.90
2023-04-26T02:14:21.005Z,3.80
2023-04-26T02:16:51.886Z,3.80
2023-04-26T02:19:20.764Z,3.70
2023-04-26T02:21:53.513Z,3.60
2023-04-26T02:24:23.265Z,3.70
2023-04-26T02:26:51.857Z,3.50
2023-04-26T02:29:26.635Z,3.50
2023-04-26T02:32:06.542Z,3.30
2023-04-26T02:34:34.784Z,3.30
2023-04-26T02:37:04.345Z,3.30
2023-04-26T02:39:33.566Z,3.20
2023-04-26T02:42:01.741Z,3.00
2023-04-26T02:44:32.328Z,3.10
2023-04-26T02:47:00.616Z,3.10
2023-04-26T02:49:31.807Z,3.00
2023-04-26T02:52:00.113Z,3.00
2023-04-26T02:54:28.591Z,3.00
2023-04-26T02:56:58.163Z,2.90
2023-04-26T02:59:26.243Z,2.90
2023-04-26T03:01:54.833Z,2.90
2023-04-26T03:04:22.887Z,2.80
2023-04-26T03:06:52.247Z,2.70
2023-04-26T03:09:20.559Z,2.60
2023-04-26T03:11:50.239Z,2.50
2023-04-26T03:14:18.485Z,2.40
2023-04-26T03:16:48.421Z,2.30
2023-04-26T03:19:16.455Z,2.30
2023-04-26T03:21:46.871Z,2.20
2023-04-26T03:24:16.282Z,2.30
2023-04-26T03:26:44.656Z,2.30
2023-04-26T03:29:12.683Z,2.20
2023-04-26T03:31:41.310Z,2.20
2023-04-26T03:34:09.438Z,2.20
2023-04-26T03:36:38.174Z,2.20
2023-04-26T03:39:06.720Z,2.10
2023-04-26T03:41:40.478Z,2.10
2023-04-26T03:44:08.446Z,2.10
2023-04-26T03:46:38.652Z,2.00
2023-04-26T03:49:07.702Z,2.00
2023-04-26T03:51:36.253Z,2.00
2023-04-26T03:54:04.935Z,2.00
2023-04-26T03:56:36.474Z,1.90
2023-04-26T03:59:07.019Z,2.00
2023-04-26T04:01:35.475Z,2.00
2023-04-26T04:04:04.544Z,1.90
2023-04-26T04:06:33.110Z,1.90
2023-04-26T04:09:02.670Z,1.90
2023-04-26T04:11:30.824Z,1.90
2023-04-26T04:13:59.419Z,1.90
2023-04-26T04:16:29.045Z,1.90
2023-04-26T04:18:57.045Z,2.00
2023-04-26T04:21:28.772Z,1.90
2023-04-26T04:23:56.688Z,1.90
2023-04-26T04:26:24.846Z,1.90
2023-04-26T04:28:53.523Z,1.90
2023-04-26T04:31:22.404Z,1.90
2023-04-26T04:33:52.030Z,2.00
2023-04-26T04:36:20.439Z,2.00
2023-04-26T04:38:48.430Z,2.00
2023-04-26T04:41:17.133Z,2.10
2023-04-26T04:43:45.326Z,2.10
2023-04-26T04:46:13.521Z,2.10
2023-04-26T04:48:44.352Z,2.20
2023-04-26T04:51:13.914Z,2.30
2023-04-26T04:53:42.163Z,2.30
2023-04-26T04:56:10.645Z,2.30
2023-04-26T04:58:39.688Z,2.40
2023-04-26T05:01:07.907Z,2.50
2023-04-26T05:03:36.725Z,2.50
2023-04-26T05:06:05.870Z,2.50
2023-04-26T05:08:36.733Z,2.60
2023-04-26T05:11:05.141Z,2.70
2023-04-26T05:13:33.107Z,2.70
2023-04-26T05:16:01.097Z,2.80
2023-04-26T05:18:29.423Z,2.90
2023-04-26T05:20:58.692Z,2.90
2023-04-26T05:23:26.730Z,3.00
2023-04-26T05:25:56.046Z,3.10
2023-04-26T05:28:24.318Z,3.20
2023-04-26T05:30:53.272Z,3.30
2023-04-26T05:33:22.134Z,3.50
2023-04-26T05:35:52.761Z,3.60
2023-04-26T05:38:21.891Z,3.80
2023-04-26T05:40:51.474Z,4.00
2023-04-26T05:43:20.936Z,4.10
2023-04-26T05:45:53.348Z,4.30
2023-04-26T05:48:24.075Z,4.50
2023-04-26T05:50:53.477Z,4.60
2023-04-26T05:53:21.616Z,4.70
2023-04-26T05:55:49.670Z,4.90
2023-04-26T05:58:18.987Z,4.90
2023-04-26T06:00:48.924Z,5.10
2023-04-26T06:03:20.119Z,5.30
2023-04-26T06:05:48.534Z,5.30
2023-04-26T06:08:16.608Z,5.50
2023-04-26T06:10:44.529Z,5.60
2023-04-26T06:13:13.242Z,5.70
2023-04-26T06:15:41.633Z,5.90
2023-04-26T06:18:12.456Z,6.00
2023-04-26T06:20:40.707Z,6.10
2023-04-26T06:23:09.630Z,6.10
2023-04-26T06:25:40.737Z,6.10
2023-04-26T06:28:10.695Z,6.20
2023-04-26T06:30:39.056Z,6.20
2023-04-26T06:33:07.249Z,6.20
2023-04-26T06:35:41.882Z,6.60
2023-04-26T06:38:12.645Z,6.50
2023-04-26T06:40:40.629Z,6.70
2023-04-26T06:43:10.111Z,6.90
2023-04-26T06:45:38.631Z,7.10
2023-04-26T06:48:08.343Z,7.30
2023-04-26T06:50:40.701Z,7.40
2023-04-26T06:53:09.252Z,7.50
2023-04-26T06:55:37.303Z,7.60
2023-04-26T06:58:05.344Z,7.80
2023-04-26T07:00:33.337Z,8.00
2023-04-26T07:03:02.015Z,8.00
2023-04-26T07:05:30.372Z,8.10
2023-04-26T07:08:02.253Z,8.20
2023-04-26T07:10:30.308Z,8.30
2023-04-26T07:12:58.883Z,8.40
2023-04-26T07:15:28.699Z,8.50
2023-04-26T07:17:57.016Z,8.50
2023-04-26T07:20:25.975Z,8.60
2023-04-26T07:22:54.013Z,8.90
2023-04-26T07:25:24.132Z,9.00
2023-04-26T07:27:52.415Z,9.10
2023-04-26T07:30:20.398Z,9.10
2023-04-26T07:32:49.488Z,9.00
2023-04-26T07:35:17.969Z,9.10
2023-04-26T07:37:46.671Z,9.20
2023-04-26T07:40:15.574Z,9.30
2023-04-26T07:42:44.899Z,9.30
2023-04-26T07:45:13.832Z,9.50
2023-04-26T07:47:42.431Z,9.70
2023-04-26T07:50:12.221Z,9.80
2023-04-26T07:52:40.574Z,9.80
2023-04-26T07:55:09.415Z,9.70
2023-04-26T07:57:37.964Z,9.80
2023-04-26T08:00:11.165Z,9.90
2023-04-26T08:02:50.433Z,10.20
2023-04-26T08:05:20.591Z,10.50
2023-04-26T08:07:54.028Z,10.60
2023-04-26T08:10:22.262Z,10.70
2023-04-26T08:12:50.272Z,10.50
2023-04-26T08:15:20.927Z,10.60
2023-04-26T08:17:48.961Z,10.50
2023-04-26T08:20:17.079Z,10.50
2023-04-26T08:22:45.649Z,10.50
2023-04-26T08:25:14.115Z,10.70
2023-04-26T08:27:43.544Z,10.50
2023-04-26T08:30:14.513Z,10.60
2023-04-26T08:32:44.105Z,10.60
2023-04-26T08:35:13.059Z,10.50
2023-04-26T08:37:41.463Z,10.60
2023-04-26T08:40:11.192Z,10.60
2023-04-26T08:42:46.096Z,10.80
2023-04-26T08:45:15.914Z,11.00
2023-04-26T08:47:48.887Z,11.00
2023-04-26T08:50:19.534Z,11.00
2023-04-26T08:52:50.990Z,11.00
2023-04-26T08:55:20.274Z,11.20
2023-04-26T08:57:49.610Z,11.10
2023-04-26T09:00:19.944Z,11.50
2023-04-26T09:02:51.287Z,11.90
2023-04-26T09:05:23.644Z,12.20
2023-04-26T09:07:53.136Z,12.50
2023-04-26T09:10:23.357Z,12.80
2023-04-26T09:12:53.796Z,13.00
2023-04-26T09:15:22.927Z,13.00
2023-04-26T09:17:52.788Z,12.80
2023-04-26T09:20:23.954Z,13.00
2023-04-26T09:22:53.960Z,13.00
2023-04-26T09:25:31.183Z,12.90
2023-04-26T09:27:59.844Z,12.80
2023-04-26T09:30:28.724Z,12.80
2023-04-26T09:32:59.701Z,12.70
2023-04-26T09:35:30.496Z,12.80
2023-04-26T09:38:04.302Z,12.60
2023-04-26T09:40:38.071Z,12.60
2023-04-26T09:43:08.762Z,12.60
2023-04-26T09:45:46.945Z,12.60
2023-04-26T09:48:22.936Z,13.00
2023-04-26T09:50:53.376Z,13.30
2023-04-26T09:53:34.819Z,13.30
2023-04-26T09:56:10.397Z,13.50
2023-04-26T09:58:40.084Z,13.90
2023-04-26T10:01:12.482Z,14.30
2023-04-26T10:03:42.755Z,14.20
2023-04-26T10:06:11.830Z,14.10
2023-04-26T10:08:40.730Z,14.20
2023-04-26T10:11:10.578Z,14.50
2023-04-26T10:13:39.180Z,14.70
2023-04-26T10:16:07.978Z,14.40
2023-04-26T10:18:36.114Z,14.20
2023-04-26T10:21:10.853Z,14.40
2023-04-26T10:23:39.498Z,14.40
2023-04-26T10:26:07.768Z,14.20
2023-04-26T10:29:00.574Z,14.30
2023-04-26T10:32:04.497Z,14.60
2023-04-26T10:34:35.055Z,14.70
2023-04-26T10:37:14.829Z,14.70
2023-04-26T10:39:44.964Z,14.40
2023-04-26T10:42:26.620Z,14.70
2023-04-26T10:44:56.209Z,14.50
2023-04-26T10:47:28.649Z,14.50
2023-04-26T10:50:08.066Z,14.60
2023-04-26T10:52:38.376Z,14.90
2023-04-26T10:55:07.861Z,14.90
2023-04-26T10:57:53.221Z,14.60
2023-04-26T11:00:33.283Z,14.50
2023-04-26T11:03:07.063Z,14.50
2023-04-26T11:05:49.741Z,14.30
2023-04-26T11:08:20.990Z,14.30
2023-04-26T11:10:54.296Z,14.60
2023-04-26T11:13:22.466Z,14.70
2023-04-26T11:15:55.122Z,14.80
2023-04-26T11:18:25.029Z,15.10
2023-04-26T11:20:53.508Z,15.20
2023-04-26T11:23:24.718Z,15.00
2023-04-26T11:25:54.905Z,15.30
2023-04-26T11:28:23.294Z,15.40
2023-04-26T11:30:51.704Z,15.60
2023-04-26T11:33:20.684Z,15.10
2023-04-26T11:35:49.070Z,15.20
2023-04-26T11:38:17.921Z,14.90
2023-04-26T11:40:55.116Z,14.80
2023-04-26T11:43:23.557Z,14.80
2023-04-26T11:45:52.117Z,15.00
2023-04-26T11:48:20.422Z,14.80
2023-04-26T11:50:48.879Z,14.60
2023-04-26T11:53:17.605Z,14.60
2023-04-26T11:55:47.722Z,14.80
2023-04-26T11:58:16.864Z,15.10
2023-04-26T12:01:02.117Z,15.30
2023-04-26T12:03:32.280Z,15.40
2023-04-26T12:06:00.694Z,15.30
2023-04-26T12:08:29.539Z,15.20
2023-04-26T12:11:02.715Z,15.50
2023-04-26T12:13:31.024Z,15.60
2023-04-26T12:15:59.104Z,15.80
2023-04-26T12:18:32.394Z,15.60
2023-04-26T12:21:01.562Z,15.40
2023-04-26T12:23:36.983Z,15.30
2023-04-26T12:26:07.591Z,15.70
2023-04-26T12:28:35.898Z,16.10
2023-04-26T12:31:04.942Z,16.50
2023-04-26T12:33:33.142Z,16.30
2023-04-26T12:36:08.330Z,16.40
2023-04-26T12:38:36.361Z,16.60
2023-04-26T12:41:07.448Z,16.70
2023-04-26T12:43:36.829Z,16.90
2023-04-26T12:46:06.377Z,16.80
2023-04-26T12:48:35.049Z,16.80
2023-04-26T12:51:03.541Z,16.90
2023-04-26T12:53:31.820Z,16.90
2023-04-26T12:55:59.972Z,17.00
2023-04-26T12:58:29.716Z,17.10
2023-04-26T13:00:58.090Z,16.80
2023-04-26T13:03:26.583Z,16.70
2023-04-26T13:05:55.366Z,17.10
2023-04-26T13:08:24.444Z,16.80
2023-04-26T13:10:52.698Z,16.90
2023-04-26T13:13:26.358Z,17.10
2023-04-26T13:16:02.530Z,17.70
2023-04-26T13:18:31.169Z,17.90
2023-04-26T13:20:59.346Z,17.90
2023-04-26T13:23:27.502Z,18.10
2023-04-26T13:25:55.562Z,18.50
2023-04-26T13:28:23.529Z,18.30
2023-04-26T13:30:53.315Z,18.30
2023-04-26T13:33:23.305Z,17.90
2023-04-26T13:35:51.532Z,18.70
2023-04-26T13:38:19.767Z,19.10
2023-04-26T13:40:48.008Z,19.80
2023-04-26T13:43:16.082Z,19.70
2023-04-26T13:45:44.372Z,19.80
2023-04-26T13:48:12.848Z,19.80
2023-04-26T13:50:42.500Z,19.50
2023-04-26T13:53:11.321Z,19.80
2023-04-26T13:55:39.972Z,19.90
2023-04-26T13:58:08.454Z,20.10
2023-04-26T14:00:36.634Z,20.40
2023-04-26T14:03:05.263Z,20.50
2023-04-26T14:05:33.840Z,20.30
2023-04-26T14:08:04.530Z,20.50
2023-04-26T14:10:32.837Z,21.50
2023-04-26T14:13:01.177Z,22.80
2023-04-26T14:15:29.603Z,22.90
2023-04-26T14:17:58.005Z,22.60
2023-04-26T14:20:26.167Z,22.30
2023-04-26T14:22:54.462Z,22.80
2023-04-26T14:25:23.792Z,22.80
2023-04-26T14:27:53.509Z,22.30
2023-04-26T14:30:22.091Z,22.30
2023-04-26T14:32:50.041Z,22.00
2023-04-26T14:35:18.629Z,21.90
2023-04-26T14:37:46.851Z,21.50
2023-04-26T14:40:15.736Z,21.10
2023-04-26T14:42:45.985Z,20.90
2023-04-26T14:45:14.620Z,21.40
2023-04-26T14:47:43.027Z,20.60
2023-04-26T14:50:14.009Z,20.10
2023-04-26T14:52:42.568Z,19.30
2023-04-26T14:55:11.006Z,18.20
2023-04-26T14:57:41.975Z,18.10
2023-04-26T15:00:15.373Z,18.00
2023-04-26T15:02:44.259Z,17.50
2023-04-26T15:05:13.208Z,17.50
2023-04-26T15:07:41.623Z,17.40
2023-04-26T15:10:10.160Z,17.20
2023-04-26T15:12:38.652Z,16.90
2023-04-26T15:15:08.555Z,17.10
2023-04-26T15:17:38.051Z,17.10
2023-04-26T15:20:07.430Z,17.60
2023-04-26T15:22:38.509Z,18.80
2023-04-26T15:25:08.430Z,18.80
2023-04-26T15:27:37.292Z,19.30
2023-04-26T15:30:06.127Z,20.30
2023-04-26T15:32:34.376Z,20.40
2023-04-26T15:35:05.325Z,19.80
2023-04-26T15:37:36.573Z,18.90
2023-04-26T15:40:06.535Z,19.00
2023-04-26T15:42:34.762Z,18.70
2023-04-26T15:45:03.316Z,18.60
2023-04-26T15:47:32.651Z,18.40
2023-04-26T15:50:05.365Z,18.10
2023-04-26T15:52:39.142Z,18.00
2023-04-26T15:55:08.374Z,18.10
2023-04-26T15:57:36.443Z,17.80
2023-04-26T16:00:06.198Z,17.50
2023-04-26T16:02:34.679Z,17.20
2023-04-26T16:05:04.618Z,16.90
2023-04-26T16:07:33.921Z,16.70
2023-04-26T16:10:03.630Z,16.70
2023-04-26T16:12:31.981Z,16.90
2023-04-26T16:15:00.054Z,16.60
2023-04-26T16:17:28.706Z,16.30
2023-04-26T16:19:56.983Z,16.10
2023-04-26T16:22:27.236Z,15.90
2023-04-26T16:24:55.502Z,15.70
2023-04-26T16:27:27.237Z,16.10
2023-04-26T16:29:55.739Z,16.00
2023-04-26T16:32:26.580Z,15.80
2023-04-26T16:34:54.639Z,15.60
2023-04-26T16:37:22.826Z,15.60
2023-04-26T16:39:55.644Z,16.00
2023-04-26T16:42:25.740Z,16.10
2023-04-26T16:44:57.082Z,16.00
2023-04-26T16:47:26.296Z,15.90
2023-04-26T16:49:58.989Z,15.80
2023-04-26T16:52:27.236Z,15.70
2023-04-26T16:54:58.205Z,15.50
2023-04-26T16:57:28.094Z,15.50
2023-04-26T16:59:58.866Z,15.50
2023-04-26T17:02:27.805Z,15.50
2023-04-26T17:04:58.999Z,15.50
2023-04-26T17:07:27.520Z,15.50
2023-04-26T17:09:58.090Z,15.50
2023-04-26T17:12:27.961Z,15.50
2023-04-26T17:14:58.482Z,15.50
2023-04-26T17:17:27.405Z,15.50
2023-04-26T17:19:56.057Z,15.40
2023-04-26T17:22:24.346Z,15.40
2023-04-26T17:24:52.431Z,15.40
2023-04-26T17:27:22.223Z,15.30
2023-04-26T17:29:50.630Z,15.30
2023-04-26T17:32:18.615Z,15.30
2023-04-26T17:34:46.935Z,15.30
2023-04-26T17:37:15.614Z,15.20
2023-04-26T17:39:43.597Z,14.90
2023-04-26T17:42:11.830Z,14.90
2023-04-26T17:44:41.181Z,14.80
2023-04-26T17:47:09.207Z,14.90
2023-04-26T17:49:37.260Z,14.80
2023-04-26T17:52:05.576Z,14.80
2023-04-26T17:54:34.222Z,14.70
2023-04-26T17:57:03.116Z,14.60
2023-04-26T17:59:32.345Z,14.50
2023-04-26T18:02:02.921Z,14.50
2023-04-26T18:04:33.221Z,14.30
2023-04-26T18:07:02.425Z,14.30
2023-04-26T18:09:30.415Z,14.10
2023-04-26T18:11:59.680Z,14.00
2023-04-26T18:14:27.919Z,13.90
2023-04-26T18:16:56.150Z,13.80
2023-04-26T18:19:25.772Z,13.70
2023-04-26T18:21:53.961Z,13.70
2023-04-26T18:24:22.297Z,13.60
2023-04-26T18:26:53.736Z,13.50
2023-04-26T18:29:22.029Z,13.50
2023-04-26T18:34:21.690Z,13.20
2023-04-26T18:36:51.460Z,13.10
2023-04-26T18:39:19.623Z,13.00
2023-04-26T18:41:48.653Z,12.80
2023-04-26T18:44:16.837Z,12.80
2023-04-26T18:46:45.666Z,12.70
2023-04-26T18:49:13.732Z,12.70
2023-04-26T18:51:42.170Z,12.50
2023-04-26T18:54:11.777Z,12.50
2023-04-26T18:56:41.232Z,12.40
2023-04-26T18:59:10.729Z,12.40
2023-04-26T19:01:40.150Z,12.30
2023-04-26T19:04:09.609Z,12.30
2023-04-26T19:06:38.441Z,12.20
2023-04-26T19:09:08.762Z,12.10
2023-04-26T19:11:38.385Z,12.10
2023-04-26T19:14:06.434Z,12.00
2023-04-26T19:16:35.497Z,11.90
2023-04-26T19:19:05.611Z,11.90
2023-04-26T19:21:33.818Z,11.90
2023-04-26T19:24:02.422Z,11.80
2023-04-26T19:26:30.337Z,11.70
2023-04-26T19:28:59.810Z,11.60
2023-04-26T19:31:30.910Z,11.50
2023-04-26T19:33:59.157Z,11.50
2023-04-26T19:36:29.087Z,11.40
2023-04-26T19:38:58.824Z,11.40
2023-04-26T19:41:26.817Z,11.40
2023-04-26T19:43:56.730Z,11.40
2023-04-26T19:46:26.136Z,11.30
2023-04-26T19:48:54.593Z,11.30
2023-04-26T19:51:22.890Z,11.20
2023-04-26T19:53:50.950Z,11.20
2023-04-26T19:56:20.636Z,11.10
2023-04-26T19:58:48.544Z,10.90
2023-04-26T20:01:16.493Z,11.00
2023-04-26T20:03:46.366Z,11.00
2023-04-26T20:06:14.831Z,11.00
2023-04-26T20:08:43.592Z,10.90
2023-04-26T20:11:15.114Z,10.90
2023-04-26T20:13:43.693Z,10.90
2023-04-26T20:16:12.523Z,10.90
2023-04-26T20:18:41.991Z,10.90
2023-04-26T20:21:11.604Z,10.90
2023-04-26T20:23:41.460Z,10.90
2023-04-26T20:26:09.861Z,10.90
2023-04-26T20:28:39.996Z,10.90
2023-04-26T20:31:09.752Z,10.90
2023-04-26T20:33:37.837Z,10.90
2023-04-26T20:36:06.942Z,10.90
2023-04-26T20:38:36.625Z,10.80
2023-04-26T20:41:04.782Z,10.80
2023-04-26T20:43:33.207Z,10.70
2023-04-26T20:46:01.634Z,10.70
2023-04-26T20:48:29.610Z,10.70
2023-04-26T20:50:58.734Z,10.70
2023-04-26T20:53:26.932Z,10.60
2023-04-26T20:55:56.923Z,10.60
2023-04-26T20:58:25.415Z,10.50
2023-04-26T21:00:55.509Z,10.40
2023-04-26T21:03:23.739Z,10.40
2023-04-26T21:05:51.891Z,10.40
2023-04-26T21:08:20.054Z,10.30
2023-04-26T21:10:50.542Z,10.20
2023-04-26T21:13:21.069Z,10.10
2023-04-26T21:15:49.086Z,10.10
2023-04-26T21:18:17.130Z,10.00
2023-04-26T21:20:45.349Z,9.90
2023-04-26T21:23:13.463Z,9.80
2023-04-26T21:25:47.170Z,9.80
2023-04-26T21:28:15.686Z,9.80
2023-04-26T21:30:45.330Z,9.70
2023-04-26T21:33:15.765Z,9.60
2023-04-26T21:35:44.010Z,9.50
2023-04-26T21:38:12.496Z,9.40
2023-04-26T21:40:41.168Z,9.30
2023-04-26T21:43:09.323Z,9.20
2023-04-26T21:45:37.768Z,9.00
2023-04-26T21:48:07.269Z,9.00
2023-04-26T21:50:35.968Z,8.90
2023-04-26T21:53:04.290Z,9.30
2023-04-26T21:55:32.806Z,8.70
2023-04-26T21:58:01.266Z,8.60
2023-04-26T22:00:31.829Z,8.60
2023-04-26T22:03:00.281Z,8.50
2023-04-26T22:05:29.808Z,8.40
2023-04-26T22:07:58.291Z,8.40
2023-04-26T22:10:26.790Z,8.40
2023-04-26T22:12:54.737Z,8.40
2023-04-26T22:15:22.918Z,8.30
2023-04-26T22:17:51.507Z,8.20
2023-04-26T22:20:21.810Z,8.20
2023-04-26T22:22:51.856Z,8.10
2023-04-26T22:25:19.871Z,8.10
2023-04-26T22:27:48.132Z,8.00
2023-04-26T22:30:25.372Z,7.80
2023-04-26T22:32:58.010Z,8.00
2023-04-26T22:35:27.554Z,7.90
2023-04-26T22:37:57.246Z,7.80
2023-04-26T22:40:25.585Z,7.70
2023-04-26T22:42:54.426Z,7.70
2023-04-26T22:45:22.872Z,7.70
2023-04-26T22:47:51.551Z,7.70
2023-04-26T22:50:19.722Z,7.50
2023-04-26T22:52:48.007Z,7.60
2023-04-26T22:55:18.347Z,7.60
2023-04-26T22:57:47.859Z,7.50
2023-04-26T23:00:16.296Z,7.50
2023-04-26T23:02:44.564Z,7.40
2023-04-26T23:05:13.312Z,7.40
2023-04-26T23:07:41.753Z,7.30
2023-04-26T23:10:10.613Z,7.20
2023-04-26T23:12:40.673Z,7.20
2023-04-26T23:15:12.295Z,7.00
2023-04-26T23:17:41.870Z,6.90
2023-04-26T23:20:13.099Z,6.90
2023-04-26T23:22:43.089Z,6.80
2023-04-26T23:25:11.595Z,6.80
2023-04-26T23:27:41.205Z,6.80
2023-04-26T23:30:10.346Z,6.80
2023-04-26T23:32:38.699Z,6.80
2023-04-26T23:35:08.261Z,6.80
2023-04-26T23:37:37.770Z,6.80
2023-04-26T23:40:08.952Z,6.70
2023-04-26T23:42:37.024Z,6.60
2023-04-26T23:45:08.013Z,6.60
2023-04-26T23:47:36.288Z,6.50
2023-04-26T23:50:04.492Z,6.50
2023-04-26T23:52:33.560Z,6.50
2023-04-26T23:55:01.747Z,6.40
2023-04-26T23:57:32.027Z,6.30
